createdAt,value
2024-02-13T00:02:53.887Z,12.90
2024-02-13T00:06:56.009Z,11.43
2024-02-13T00:10:57.883Z,13.23
2024-02-13T00:14:59.815Z,8.97
2024-02-13T00:19:03.243Z,12.47
2024-02-13T00:23:05.095Z,10.20
2024-02-13T00:27:06.928Z,9.70
2024-02-13T00:31:08.972Z,9.60
2024-02-13T00:35:12.330Z,8.97
2024-02-13T00:39:14.171Z,11.57
2024-02-13T00:43:16.035Z,8.03
2024-02-13T00:47:17.630Z,10.33
2024-02-13T00:51:20.998Z,8.77
2024-02-13T00:55:22.711Z,7.80
2024-02-13T00:59:25.245Z,9.63
2024-02-13T01:03:27.812Z,9.83
2024-02-13T01:07:31.537Z,11.43
2024-02-13T01:11:33.192Z,8.30
2024-02-13T01:15:34.890Z,8.80
2024-02-13T01:19:36.587Z,9.77
2024-02-13T01:23:39.891Z,8.07
2024-02-13T01:27:41.938Z,11.13
2024-02-13T01:31:43.786Z,8.87
2024-02-13T01:35:45.506Z,7.13
2024-02-13T01:39:48.638Z,9.73
2024-02-13T01:43:50.468Z,8.73
2024-02-13T01:47:52.595Z,10.73
2024-02-13T01:51:54.417Z,9.20
2024-02-13T01:55:59.050Z,11.97
2024-02-13T02:00:00.832Z,7.40
2024-02-13T02:04:04.448Z,8.43
2024-02-13T02:08:07.522Z,9.77
2024-02-13T02:12:10.749Z,9.37
2024-02-13T02:16:13.073Z,7.63
2024-02-13T02:20:15.618Z,8.00
2024-02-13T02:24:17.240Z,8.07
2024-02-13T02:28:20.681Z,9.20
2024-02-13T02:32:22.493Z,9.87
2024-02-13T02:36:24.191Z,8.70
2024-02-13T02:40:26.102Z,10.43
2024-02-13T02:44:29.359Z,14.10
2024-02-13T02:48:31.463Z,7.47
2024-02-13T02:52:33.351Z,8.03
2024-02-13T02:56:35.114Z,9.47
2024-02-13T03:00:39.356Z,8.93
2024-02-13T03:04:40.988Z,12.27
2024-02-13T03:08:43.041Z,8.43
2024-02-13T03:12:44.794Z,8.87
2024-02-13T03:16:47.843Z,7.83
2024-02-13T03:20:49.996Z,11.10
2024-02-13T03:24:52.942Z,7.90
2024-02-13T03:28:54.770Z,8.80
2024-02-13T03:32:57.982Z,8.00
2024-02-13T03:36:59.884Z,11.53
2024-02-13T03:41:01.686Z,10.40
2024-02-13T03:45:03.951Z,10.47
2024-02-13T03:49:07.663Z,13.07
2024-02-13T03:53:11.954Z,11.27
2024-02-13T03:57:13.822Z,12.23
2024-02-13T04:01:15.614Z,7.90
2024-02-13T04:05:18.802Z,12.83
2024-02-13T04:09:21.011Z,8.60
2024-02-13T04:13:22.679Z,8.57
2024-02-13T04:17:24.829Z,10.43
2024-02-13T04:21:27.914Z,9.93
2024-02-13T04:25:29.937Z,10.90
2024-02-13T04:29:31.756Z,7.90
2024-02-13T04:33:33.509Z,8.97
2024-02-13T04:37:37.142Z,11.87
2024-02-13T04:41:38.879Z,11.17
2024-02-13T04:45:40.555Z,8.47
2024-02-13T04:49:42.393Z,10.23
2024-02-13T04:53:45.811Z,7.27
2024-02-13T04:57:47.690Z,8.00
2024-02-13T05:01:49.372Z,8.03
2024-02-13T05:05:51.107Z,5.47
2024-02-13T05:09:54.330Z,6.80
2024-02-13T05:13:58.965Z,7.80
2024-02-13T05:18:02.438Z,7.33
2024-02-13T05:22:04.543Z,8.13
2024-02-13T05:26:07.603Z,6.93
2024-02-13T05:30:10.082Z,4.93
2024-02-13T05:34:12.026Z,7.63
2024-02-13T05:38:13.874Z,5.30
2024-02-13T05:42:16.968Z,5.17
2024-02-13T05:46:18.786Z,4.47
2024-02-13T05:50:20.692Z,4.53
2024-02-13T05:54:22.553Z,3.30
2024-02-13T05:58:25.558Z,4.33
2024-02-13T06:02:27.272Z,5.03
2024-02-13T06:06:29.470Z,4.03
2024-02-13T06:10:31.429Z,3.10
2024-02-13T06:14:35.114Z,2.57
2024-02-13T06:18:37.181Z,5.07
2024-02-13T06:22:38.933Z,7.83
2024-02-13T06:26:40.614Z,3.50
2024-02-13T06:30:44.063Z,2.93
2024-02-13T06:34:46.045Z,4.50
2024-02-13T06:38:47.799Z,4.60
2024-02-13T06:42:49.559Z,2.93
2024-02-13T06:46:52.730Z,3.63
2024-02-13T06:50:54.449Z,4.60
2024-02-13T06:54:56.098Z,5.37
2024-02-13T06:58:57.949Z,3.30
2024-02-13T07:03:01.111Z,5.80
2024-02-13T07:07:13.857Z,5.13
2024-02-13T07:11:21.417Z,4.53
2024-02-13T07:15:23.313Z,2.50
2024-02-13T07:19:26.694Z,4.13
2024-02-13T07:23:28.537Z,8.37
2024-02-13T07:27:30.120Z,2.73
2024-02-13T07:31:31.764Z,7.40
2024-02-13T07:35:34.945Z,3.77
2024-02-13T07:39:36.802Z,4.53
2024-02-13T07:43:38.417Z,4.50
2024-02-13T07:47:40.088Z,6.23
2024-02-13T07:51:43.142Z,4.57
2024-02-13T07:55:44.748Z,5.67
2024-02-13T07:59:47.117Z,4.83
2024-02-13T08:03:49.212Z,3.90
2024-02-13T08:07:52.674Z,6.47
2024-02-13T08:11:54.451Z,4.67
2024-02-13T08:15:56.121Z,6.57
2024-02-13T08:19:57.786Z,3.43
2024-02-13T08:24:00.785Z,3.97
2024-02-13T08:28:02.484Z,3.40
2024-02-13T08:32:05.321Z,4.53
2024-02-13T08:36:08.215Z,4.77
2024-02-13T08:40:12.555Z,3.93
2024-02-13T08:44:14.185Z,3.27
2024-02-13T08:48:16.076Z,3.93
2024-02-13T08:52:17.758Z,2.93
2024-02-13T08:56:20.821Z,6.27
2024-02-13T09:00:22.820Z,3.30
2024-02-13T09:04:24.777Z,5.50
2024-02-13T09:08:26.529Z,5.73
2024-02-13T09:12:29.632Z,4.53
2024-02-13T09:16:31.405Z,3.83
2024-02-13T09:20:33.208Z,2.10
2024-02-13T09:24:34.877Z,5.07
2024-02-13T09:28:37.918Z,6.93
2024-02-13T09:32:39.747Z,4.50
2024-02-13T09:36:42.308Z,1.70
2024-02-13T09:40:44.084Z,2.93
2024-02-13T09:44:47.197Z,3.03
2024-02-13T09:48:50.120Z,4.90
2024-02-13T09:52:54.383Z,2.87
2024-02-13T09:56:58.744Z,4.70
2024-02-13T10:01:02.493Z,6.70
2024-02-13T10:05:04.639Z,3.00
2024-02-13T10:09:06.828Z,5.40
2024-02-13T10:13:08.446Z,3.50
2024-02-13T10:17:11.834Z,1.97
2024-02-13T10:21:14.480Z,4.80
2024-02-13T10:25:16.901Z,3.70
2024-02-13T10:29:18.515Z,2.50
2024-02-13T10:33:21.613Z,7.00
2024-02-13T10:37:26.422Z,2.67
2024-02-13T10:41:28.224Z,6.30
2024-02-13T10:45:30.362Z,2.23
2024-02-13T10:49:43.906Z,2.53
2024-02-13T10:53:47.773Z,2.07
2024-02-13T10:57:51.498Z,2.70
2024-02-13T11:01:55.788Z,3.30
2024-02-13T11:05:59.024Z,4.60
2024-02-13T11:10:00.986Z,4.80
2024-02-13T11:14:02.824Z,2.87
2024-02-13T11:18:10.013Z,3.47
2024-02-13T11:22:13.260Z,2.27
2024-02-13T11:26:18.983Z,1.77
2024-02-13T11:30:21.729Z,3.67
2024-02-13T11:34:38.977Z,3.90
2024-02-13T11:38:42.662Z,3.20
2024-02-13T11:42:44.343Z,1.17
2024-02-13T11:46:49.967Z,5.33
2024-02-13T11:50:51.695Z,3.50
2024-02-13T11:54:54.836Z,3.07
2024-02-13T11:59:03.522Z,1.93
2024-02-13T12:03:05.517Z,2.33
2024-02-13T12:07:07.673Z,1.50
2024-02-13T12:11:11.082Z,2.97
2024-02-13T12:15:13.165Z,2.60
2024-02-13T12:19:15.569Z,1.90
2024-02-13T12:23:17.607Z,2.50
2024-02-13T12:27:20.698Z,1.27
2024-02-13T12:31:23.998Z,3.07
2024-02-13T12:35:25.708Z,3.20
2024-02-13T12:39:27.723Z,1.43
2024-02-13T12:43:31.187Z,1.30
2024-02-13T12:47:32.903Z,1.97
2024-02-13T12:51:34.935Z,2.20
2024-02-13T12:55:37.563Z,3.33
2024-02-13T12:59:40.698Z,3.33
2024-02-13T13:03:42.555Z,2.60
2024-02-13T13:07:46.799Z,1.70
2024-02-13T13:11:49.171Z,1.97
2024-02-13T13:15:52.585Z,0.93
2024-02-13T13:19:54.371Z,3.37
2024-02-13T13:23:57.581Z,2.57
2024-02-13T13:27:59.597Z,2.30
2024-02-13T13:32:02.706Z,3.93
2024-02-13T13:36:04.644Z,3.30
2024-02-13T13:40:08.389Z,3.67
2024-02-13T13:44:10.905Z,2.37
2024-02-13T13:48:16.263Z,3.43
2024-02-13T13:52:18.121Z,1.27
2024-02-13T13:56:19.994Z,3.77
2024-02-13T14:00:21.909Z,2.93
2024-02-13T14:04:25.253Z,3.50
2024-02-13T14:08:27.262Z,3.57
2024-02-13T14:12:29.210Z,1.93
2024-02-13T14:16:31.111Z,2.30
2024-02-13T14:20:34.579Z,1.07
2024-02-13T14:24:36.338Z,2.07
2024-02-13T14:28:37.984Z,1.43
2024-02-13T14:32:39.816Z,3.07
2024-02-13T14:36:44.850Z,2.13
2024-02-13T14:40:47.182Z,1.73
2024-02-13T14:44:48.999Z,3.37
2024-02-13T14:48:51.110Z,3.83
2024-02-13T14:52:57.621Z,1.90
2024-02-13T14:56:59.649Z,2.57
2024-02-13T15:01:01.542Z,1.93
2024-02-13T15:05:03.570Z,2.97
2024-02-13T15:09:06.645Z,3.37
2024-02-13T15:13:08.367Z,2.20
2024-02-13T15:17:16.059Z,3.80
2024-02-13T15:21:18.039Z,2.70
2024-02-13T15:25:21.123Z,3.07
2024-02-13T15:29:22.931Z,4.10
2024-02-13T15:33:24.691Z,1.97
2024-02-13T15:37:26.511Z,1.20
2024-02-13T15:41:30.617Z,3.67
2024-02-13T15:45:33.170Z,1.70
2024-02-13T15:49:36.106Z,1.63
2024-02-13T15:53:38.033Z,2.50
2024-02-13T15:57:42.691Z,2.63
2024-02-13T16:01:44.445Z,3.03
2024-02-13T16:05:46.269Z,2.10
2024-02-13T16:09:48.011Z,4.90
2024-02-13T16:13:51.008Z,2.17
2024-02-13T16:17:52.814Z,1.80
2024-02-13T16:21:54.537Z,4.10
2024-02-13T16:25:56.317Z,3.47
2024-02-13T16:29:59.460Z,3.93
2024-02-13T16:34:01.389Z,3.27
2024-02-13T16:38:04.751Z,2.73
2024-02-13T16:42:06.688Z,2.30
2024-02-13T16:46:10.031Z,2.53
2024-02-13T16:50:11.716Z,3.37
2024-02-13T16:54:13.457Z,2.37
2024-02-13T16:58:16.236Z,4.50
2024-02-13T17:02:19.319Z,3.93
2024-02-13T17:06:21.275Z,2.90
2024-02-13T17:10:23.151Z,3.60
2024-02-13T17:14:24.883Z,4.30
2024-02-13T17:18:28.509Z,3.73
2024-02-13T17:22:30.276Z,5.07
2024-02-13T17:26:32.369Z,4.27
2024-02-13T17:30:34.234Z,3.23
2024-02-13T17:34:38.157Z,2.07
2024-02-13T17:38:40.033Z,2.33
2024-02-13T17:42:41.877Z,3.93
2024-02-13T17:46:43.496Z,2.60
2024-02-13T17:50:47.226Z,1.67
2024-02-13T17:54:48.868Z,2.93
2024-02-13T17:58:50.605Z,4.07
2024-02-13T18:02:52.290Z,4.27
2024-02-13T18:06:55.607Z,4.00
2024-02-13T18:10:57.571Z,5.33
2024-02-13T18:14:59.501Z,3.33
2024-02-13T18:19:02.005Z,3.33
2024-02-13T18:23:05.512Z,3.43
2024-02-13T18:27:11.254Z,2.13
2024-02-13T18:31:13.095Z,4.40
2024-02-13T18:35:14.907Z,5.83
2024-02-13T18:39:18.942Z,5.47
2024-02-13T18:43:20.581Z,4.90
2024-02-13T18:47:22.264Z,4.77
2024-02-13T18:51:24.344Z,4.90
2024-02-13T18:55:27.350Z,3.77
2024-02-13T18:59:28.982Z,4.03
2024-02-13T19:03:31.114Z,4.33
2024-02-13T19:07:32.746Z,3.83
2024-02-13T19:11:35.798Z,4.43
2024-02-13T19:15:37.471Z,5.77
2024-02-13T19:19:40.417Z,5.43
2024-02-13T19:23:42.136Z,3.53
2024-02-13T19:27:45.468Z,3.63
2024-02-13T19:31:47.091Z,6.23
2024-02-13T19:35:51.595Z,4.70
2024-02-13T19:39:53.338Z,4.10
2024-02-13T19:43:56.434Z,5.00
2024-02-13T19:47:58.176Z,6.27
2024-02-13T19:51:59.976Z,4.60
2024-02-13T19:56:01.901Z,5.77
2024-02-13T20:00:07.452Z,4.70
2024-02-13T20:04:11.456Z,4.53
2024-02-13T20:08:13.216Z,4.93
2024-02-13T20:12:14.998Z,5.13
2024-02-13T20:16:17.963Z,7.37
2024-02-13T20:20:20.002Z,6.57
2024-02-13T20:24:21.597Z,5.03
2024-02-13T20:28:23.349Z,5.23
2024-02-13T20:32:27.233Z,4.57
2024-02-13T20:36:29.003Z,7.17
2024-02-13T20:40:30.686Z,7.37
2024-02-13T20:44:32.527Z,5.40
2024-02-13T20:48:35.687Z,7.43
2024-02-13T20:52:37.943Z,7.47
2024-02-13T20:56:39.675Z,9.43
2024-02-13T21:00:41.559Z,7.87
2024-02-13T21:04:45.216Z,5.53
2024-02-13T21:08:46.969Z,8.33
2024-02-13T21:12:48.663Z,5.90
2024-02-13T21:16:50.343Z,5.83
2024-02-13T21:20:53.645Z,6.23
2024-02-13T21:24:55.343Z,4.20
2024-02-13T21:28:57.120Z,7.43
2024-02-13T21:32:58.842Z,5.47
2024-02-13T21:37:01.846Z,5.50
2024-02-13T21:41:03.664Z,4.87
2024-02-13T21:45:06.280Z,6.73
2024-02-13T21:49:08.231Z,6.40
2024-02-13T21:53:11.526Z,4.07
2024-02-13T21:57:13.567Z,8.13
2024-02-13T22:01:16.637Z,6.70
2024-02-13T22:05:18.317Z,3.87
2024-02-13T22:09:21.271Z,9.20
2024-02-13T22:13:24.225Z,4.87
2024-02-13T22:17:25.949Z,7.90
2024-02-13T22:21:28.148Z,4.63
2024-02-13T22:25:31.409Z,4.87
2024-02-13T22:29:33.533Z,4.37
2024-02-13T22:33:35.836Z,4.10
2024-02-13T22:37:37.717Z,3.93
2024-02-13T22:41:40.795Z,5.30
2024-02-13T22:45:43.690Z,4.23
2024-02-13T22:49:45.351Z,4.63
2024-02-13T22:53:47.264Z,3.30
2024-02-13T22:57:50.366Z,7.17
2024-02-13T23:01:51.930Z,4.50
2024-02-13T23:05:54.568Z,4.23
2024-02-13T23:09:56.373Z,3.03
2024-02-13T23:13:59.630Z,1.20
2024-02-13T23:18:01.566Z,2.73
2024-02-13T23:22:04.145Z,2.60
2024-02-13T23:26:05.801Z,2.50
2024-02-13T23:30:10.647Z,3.63
2024-02-13T23:34:12.495Z,3.10
2024-02-13T23:38:14.267Z,2.47
2024-02-13T23:42:15.895Z,1.60
2024-02-13T23:46:19.030Z,2.53
2024-02-13T23:50:20.681Z,2.07
2024-02-13T23:54:22.465Z,4.03
2024-02-13T23:58:25.743Z,2.50
